Weather observations for the past three days for
Wayne, Wayne Municipal Airport
Imperial (Metric)
Date Time (cdt) Wind (mph) Vis. (mi.) Weather Sky Cond. Temperature (ºF) Relative Humidity Wind Chill (°F) Heat Index (°F) Pressure Precipitation (in)
Air Dwpt 6 hour altimeter (in) sea level (mb) 1 hr 3 hr 6 hr
Max. Min.
08 00:35 Calm 10.00 Fair CLR 39 29.3 68% 29.84 0.0
08 00:15 Calm 10.00 Fair CLR 41.9 23.4 48% 29.83 0.0
07 23:55 Calm 10.00 Fair CLR 41.2 25 53% 29.84 0.0
07 23:35 Calm 10.00 Fair CLR 38.3 28.4 68% 29.83 0.0
07 23:15 S 5 10.00 Fair CLR 39.9 25.3 56% 37 29.84 0.0
07 22:55 Calm 10.00 Fair CLR 42.6 25.2 50% 29.84 0.0
07 22:35 Calm 10.00 Fair CLR 44.2 23.7 44% 29.84 0.0
07 21:55 Calm 10.00 Fair CLR 46.9 32 56% 29.83 0.0
07 21:35 Calm 10.00 Fair CLR 49.1 27.5 43% 29.83 0.0
07 21:15 Calm 10.00 Fair CLR 51.3 23.5 34% 29.82 0.0
07 20:55 NE 5 10.00 Fair CLR 53.1 22.8 31% 29.82 0.0
07 20:35 NE 5 10.00 Fair CLR 54.5 23.9 31% 29.81 0.0
07 20:15 N 5 10.00 Fair CLR 57.6 25.7 29% 29.81 0.0
07 19:55 N 6 10.00 Fair CLR 61.9 24.1 24% 29.81 0.0
07 19:35 N 10 10.00 Fair CLR 63.5 25.5 24% 29.81 0.0
07 19:15 N 7 10.00 Fair CLR 65.3 24.1 21% 29.8 0.0
07 18:55 NW 10 10.00 Fair CLR 66.2 25.9 68.4 63.7 22% 29.8 0.0
07 18:35 N 6 10.00 Fair CLR 66.4 23.4 19% 29.8 0.0
07 18:15 NW 7 10.00 Fair CLR 67.5 25.5 21% 29.8 0.0
07 17:55 NW 13 G 17 10.00 Fair CLR 67.8 24.1 19% 29.8 0.0
07 17:35 N 6 10.00 Fair CLR 67.6 24.8 20% 29.8 0.0
07 17:15 N 9 10.00 Fair CLR 67.8 22.8 18% 29.8 0.0
07 16:55 NW 10 10.00 Fair CLR 68.2 26.6 21% 29.81 0.0
07 16:35 N 3 10.00 Fair CLR 67.8 28 23% 29.81 0.0
07 16:15 NW 7 10.00 Fair CLR 67.5 25.3 20% 29.81 0.0
07 15:55 W 6 10.00 Fair CLR 67.5 27.5 22% 29.81 0.0
07 15:35 N 8 10.00 Fair CLR 67.3 28.6 23% 29.82 0.0
07 15:15 SW 5 10.00 Fair CLR 66.4 27.1 23% 29.83 0.0
07 14:35 N 5 10.00 Fair CLR 66 27.7 24% 29.83 0.0
07 14:15 Calm 10.00 Fair CLR 65.1 26.2 23% 29.83 0.0
07 13:55 N 8 10.00 Fair CLR 65.5 27.9 24% 29.83 0.0
07 13:35 NE 9 10.00 Fair CLR 65.3 29.8 26% 29.83 0.0
07 13:15 NE 7 10.00 Fair CLR 65.1 30 27% 29.84 0.0
07 12:55 NE 14 10.00 Fair CLR 64.6 32.2 64.6 31.3 30% 29.84 0.0
07 12:15 E 13 G 17 10.00 Fair CLR 63.5 31.6 30% 29.84 0.0
07 11:55 E 12 10.00 Fair CLR 62.1 30.7 31% 29.85 0.0
07 11:35 E 13 G 17 10.00 Fair CLR 61.3 31.3 32% 29.85 0.0
07 10:55 SE 3 10.00 Fair CLR 58.5 32.9 38% 29.85 0.0
07 10:35 NE 5 10.00 Fair CLR 57.7 35.1 43% 29.85 0.0
07 10:15 NE 6 10.00 Fair CLR 56.8 35.6 45% 29.85 0.0
07 09:55 NW 3 10.00 Fair CLR 56.1 36.1 47% 29.85 0.0
07 09:35 NW 5 10.00 Fair CLR 54.7 36.3 50% 29.85 0.0
07 09:15 NW 6 10.00 Fair CLR 53.4 37.4 55% 29.85 0.0
07 08:55 W 5 10.00 Fair CLR 50.5 37.8 62% 29.85 0.0
07 08:35 Calm 10.00 Fair CLR 47.5 37.8 69% 29.86 0.0
07 08:15 SW 3 10.00 Partly Cloudy SCT120 46 37.4 72% 29.86 0.0
07 07:55 Calm 10.00 Partly Cloudy SCT120 39.9 34.9 82% 29.86 0.0
07 07:35 Calm 10.00 Partly Cloudy SCT120 33.8 30 86% 29.86 0.0
07 07:15 S 5 10.00 Partly Cloudy SCT120 31.8 28.6 88% 28 29.85 0.0
07 06:55 S 3 10.00 Partly Cloudy SCT120 33.4 28 34.9 29.5 81% 29.85 0.0
07 06:35 Calm 10.00 Partly Cloudy SCT120 32 27.3 83% 29.85 0.0
07 05:55 Calm 10.00 Fair CLR 32 25.7 78% 29.86 0.0
07 05:35 Calm 10.00 Fair CLR 29.5 25 83% 29.86 0.0
07 05:15 Calm 10.00 Fair CLR 30.4 24.6 79% 29.86 0.0
07 04:55 Calm 10.00 Fair CLR 32.4 24.4 73% 29.86 0.0
07 04:35 SW 6 10.00 Partly Cloudy SCT120 32 24.6 74% 27 29.86 0.0
07 04:15 S 3 10.00 Fair CLR 30.7 23 73% 29.87 0.0
07 03:55 Calm 10.00 Fair CLR 32.4 23.2 69% 29.88 0.0
07 03:35 Calm 10.00 Partly Cloudy SCT120 32 22.8 69% 29.88 0.0
07 03:15 S 5 10.00 Partly Cloudy SCT120 31.5 23.4 72% 27 29.89 0.0
07 02:55 SW 5 10.00 Partly Cloudy SCT120 31.8 25.5 78% 28 29.89 0.0
07 02:35 Calm 10.00 Mostly Cloudy BKN120 32 23.2 70% 29.9 0.0
07 02:15 SW 3 10.00 Partly Cloudy SCT120 32.7 22.5 66% 29.91 0.0
07 01:55 SW 3 10.00 Partly Cloudy SCT120 31.8 22.8 69% 29.92 0.0
07 01:35 SW 5 10.00 Partly Cloudy SCT120 32 22.1 67% 28 29.93 0.0
07 01:15 SW 5 10.00 Partly Cloudy SCT120 33.3 22.1 64% 30 29.94 0.0
07 00:55 SW 5 10.00 Partly Cloudy SCT120 32.4 22.6 55.6 31.3 67% 28 29.95 0.0
07 00:35 S 5 10.00 Partly Cloudy SCT120 33.3 22.6 65% 30 29.95 0.0
07 00:15 S 5 10.00 Fair CLR 32.4 23.2 69% 28 29.96 0.0
06 23:55 SW 7 10.00 Fair CLR 31.5 24.1 74% 26 29.96 0.0
06 23:35 S 3 10.00 Fair CLR 34.2 22.6 63% 29.96 0.0
06 23:15 S 3 10.00 Fair CLR 33.4 23.4 67% 29.96 0.0
06 22:55 S 3 10.00 Fair CLR 37.2 22.3 55% 29.97 0.0
06 22:35 SW 6 10.00 Partly Cloudy SCT100 37.9 22.1 53% 34 29.97 0.0
06 22:15 Calm 10.00 Partly Cloudy SCT100 39.4 23 52% 29.98 0.0
06 21:55 Calm 10.00 Fair CLR 39 22.6 52% 29.98 0.0
06 21:35 Calm 10.00 Fair CLR 39.9 21 47% 29.98 0.0
06 21:15 Calm 10.00 Partly Cloudy SCT100 45 22.3 41% 29.97 0.0
06 20:55 NW 3 10.00 Partly Cloudy SCT100 48.7 19.8 32% 29.97 0.0
06 20:35 NW 3 10.00 Partly Cloudy SCT100 49.8 26.4 40% 29.97 0.0
06 20:15 W 8 10.00 Overcast OVC090 54.1 23.7 31% 29.97 0.0
06 19:55 W 8 10.00 Overcast OVC090 54.9 25.2 32% 29.97 0.0
06 19:35 Calm 10.00 Overcast OVC090 54 28.6 38% 29.97 0.0
06 19:15 NW 7 10.00 Overcast OVC090 55 23.9 30% 29.98 0.0
06 18:55 W 9 10.00 Mostly Cloudy BKN090 55.9 22.5 59.9 53.8 27% 29.98 0.0
06 18:35 W 10 G 22 10.00 Partly Cloudy SCT090 56.3 22.5 27% 29.98 0.0
06 18:15 NW 13 10.00 Mostly Cloudy BKN090 59.2 23.2 25% 29.98 0.0
06 17:55 W 13 10.00 Partly Cloudy SCT090 57.6 21.7 25% 30 0.0
06 17:35 W 9 10.00 Partly Cloudy SCT090 57.2 23 27% 30 0.0
06 17:15 W 13 G 18 10.00 Overcast OVC090 59.9 23.5 25% 30 0.0
06 16:55 NW 5 10.00 Mostly Cloudy BKN090 57.2 21 24% 30.01 0.0
06 16:35 W 13 G 21 10.00 Mostly Cloudy BKN090 58.6 22.5 25% 30.02 0.0
06 16:15 W 10 G 17 10.00 Mostly Cloudy BKN090 59.7 24.4 26% 30.02 0.0
06 15:55 NW 14 G 22 10.00 Mostly Cloudy BKN080 57.2 23.5 27% 30.03 0.0
06 15:35 W 9 10.00 Mostly Cloudy BKN080 57.7 23.5 27% 30.03 0.0
06 15:15 W 15 G 21 10.00 Mostly Cloudy BKN080 57.4 24.6 28% 30.04 0.0
06 14:55 NW 6 G 16 10.00 Mostly Cloudy BKN080 56.3 25.3 30% 30.05 0.0
06 14:35 NW 12 G 21 10.00 Mostly Cloudy BKN080 55.2 22.3 28% 30.05 0.0
06 14:15 NW 10 G 21 10.00 Partly Cloudy SCT080 55.9 22.5 27% 30.06 0.0
06 13:55 W 12 G 22 10.00 Partly Cloudy SCT080 56.1 24.1 29% 30.06 0.0
06 13:35 NW 13 G 20 10.00 Partly Cloudy SCT080 56.7 24.3 29% 30.07 0.0
06 13:15 NW 15 G 22 10.00 Partly Cloudy SCT080 55 23.2 29% 30.08 0.0
06 12:55 NW 15 G 22 10.00 Partly Cloudy SCT075 54.5 24.3 54.9 25.7 31% 30.08 0.0
06 12:35 N 13 G 23 10.00 Partly Cloudy SCT075 54 23.2 30% 30.08 0.0
06 12:15 NW 17 G 24 10.00 Mostly Cloudy BKN075 54.1 24.1 31% 30.09 0.0
06 11:55 N 14 G 21 10.00 Mostly Cloudy BKN065 52.7 23.2 32% 30.1 0.0
06 11:35 NW 18 G 24 10.00 Mostly Cloudy BKN065 53.4 25 33% 30.1 0.0
06 11:15 NW 14 G 23 10.00 Mostly Cloudy BKN065 50.5 22.5 33% 30.1 0.0
06 10:55 NW 15 G 22 10.00 Mostly Cloudy BKN060 BKN075 51.6 23.9 34% 30.1 0.0
06 10:35 NW 13 G 18 10.00 Partly Cloudy SCT060 51.1 23.9 35% 30.09 0.0
06 10:15 NW 15 G 20 10.00 Partly Cloudy SCT060 51.3 23.9 34% 30.1 0.0
06 09:55 N 12 G 17 10.00 Fair CLR 50.2 23.7 36% 30.1 0.0
06 09:35 NW 12 G 17 10.00 Fair CLR 48.9 24.4 38% 45 30.1 0.0
06 09:15 NW 7 10.00 Fair CLR 47.3 25.3 42% 44 30.09 0.0
06 08:55 NW 6 10.00 Fair CLR 45.5 27.7 50% 43 30.1 0.0
06 08:35 W 5 10.00 Fair CLR 41.4 28.6 61% 39 30.1 0.0
06 08:15 Calm 10.00 Fair CLR 36.7 27.9 70% 30.1 0.0
06 07:55 Calm 10.00 Fair CLR 34.2 27 75% 30.09 0.0
06 07:35 Calm 10.00 Fair CLR 31.5 26.2 81% 30.08 0.0
06 07:15 Calm 10.00 Fair CLR 28.2 23.4 82% 30.08 0.0
06 06:55 Calm 10.00 Fair CLR 25.7 21.2 35.8 24.4 83% 30.08 0.0
06 06:35 SW 3 10.00 Fair CLR 24.8 20.3 83% 30.06 0.0
06 06:15 Calm 10.00 Fair CLR 26.2 20.3 78% 30.05 0.0
06 05:55 Calm 10.00 Fair CLR 25.3 20.5 82% 30.05 0.0
06 05:35 Calm 10.00 Fair CLR 26.2 20.5 79% 30.05 0.0
06 05:15 Calm 10.00 Fair CLR 26.4 20.5 78% 30.04 0.0
06 04:55 Calm 10.00 Fair CLR 28 22.8 81% 30.04 0.0
06 04:35 Calm 10.00 Fair CLR 28.9 21.6 74% 30.04 0.0
06 04:15 Calm 10.00 Fair CLR 29.1 22.3 76% 30.04 0.0
06 03:55 Calm 10.00 Fair CLR 30.2 23.2 75% 30.04 0.0
06 03:35 Calm 10.00 Fair CLR 29.8 23.7 78% 30.03 0.0
06 03:15 SW 3 10.00 Fair CLR 31.1 23.2 72% 30.03 0.0
06 02:55 S 3 10.00 Fair CLR 33.4 23.5 67% 30.03 0.0
06 02:35 Calm 10.00 Fair CLR 33.3 22.8 66% 30.03 0.0
06 02:15 Calm 10.00 Fair CLR 33.1 22.6 65% 30.03 0.0
06 01:55 Calm 10.00 Fair CLR 34 24.1 67% 30.03 0.0
06 01:35 Calm 10.00 Fair CLR 35.8 23.2 60% 30.02 0.0
06 01:15 Calm 10.00 Fair CLR 34.9 23.9 64% 30.02 0.0
06 00:55 Calm 10.00 Fair CLR 35.1 23.7 52 33.1 63% 30.02 0.0
06 00:35 Calm 10.00 Fair CLR 34.5 23.9 65% 30.01 0.0
06 00:15 Calm 10.00 Fair CLR 34.7 22.8 62% 30 0.0
05 23:55 Calm 10.00 Fair CLR 38.1 22.8 54% 30 0.0
05 23:35 Calm 10.00 Fair CLR 38.7 22.8 53% 30 0.0
05 23:15 Calm 10.00 Fair CLR 37.9 23.7 57% 30 0.0
05 22:55 N 5 10.00 Fair CLR 40.3 24.6 54% 38 30 0.0
05 22:35 N 6 10.00 Fair CLR 41 24.1 51% 38 29.99 0.0
05 22:15 N 6 10.00 Fair CLR 43.3 23.9 46% 40 29.98 0.0
05 21:55 N 8 10.00 Fair CLR 45 23.4 43% 41 29.98 0.0
05 21:35 N 7 10.00 Fair CLR 46.2 23.2 40% 43 29.96 0.0
05 21:15 N 7 10.00 Fair CLR 46.2 23.2 40% 43 29.96 0.0
05 20:55 N 6 10.00 Fair CLR 47.3 22.8 38% 45 29.95 0.0
05 20:35 N 8 10.00 Fair CLR 47.5 22.8 38% 44 29.94 0.0
05 20:15 N 8 10.00 Partly Cloudy SCT085 47.8 23.4 38% 45 29.94 0.0
05 19:55 N 8 G 16 10.00 Partly Cloudy SCT085 49.6 22.1 34% 47 29.93 0.0
05 19:35 NW 12 G 17 10.00 Partly Cloudy SCT085 50.4 21.7 32% 29.93 0.0
05 19:15 N 14 10.00 Mostly Cloudy BKN075 50.2 22.5 34% 29.93 0.0
05 18:55 N 13 G 24 10.00 Overcast OVC075 51.8 21.6 55.2 51.8 31% 29.93 0.0
05 18:35 NW 14 G 22 10.00 Mostly Cloudy BKN075 52.7 21.9 30% 29.92 0.0
05 18:15 NW 14 G 23 10.00 Mostly Cloudy BKN075 52 22.6 32% 29.92 0.0
05 17:55 NW 15 G 21 10.00 Partly Cloudy SCT075 52.5 22.6 31% 29.92 0.0
05 17:35 NW 18 G 25 10.00 Partly Cloudy SCT075 52.9 22.8 31% 29.92 0.0
05 17:15 NW 15 G 25 10.00 Partly Cloudy SCT075 53.1 23.5 32% 29.92 0.0
05 16:55 NW 17 G 28 10.00 Partly Cloudy SCT075 54 24.4 32% 29.92 0.0
05 16:35 NW 18 G 26 10.00 Partly Cloudy SCT075 53.8 25.2 33% 29.92 0.0
05 16:15 NW 15 G 26 10.00 Mostly Cloudy BKN075 53.2 24.6 33% 29.92 0.0
05 15:35 N 15 G 28 10.00 Overcast OVC065 54.7 25.5 32% 29.93 0.0
05 15:15 N 16 G 25 10.00 Mostly Cloudy BKN065 53.2 24.8 33% 29.93 0.0
05 14:55 N 14 G 24 10.00 Mostly Cloudy BKN065 53.6 25.3 33% 29.94 0.0
05 14:35 N 16 G 28 10.00 Mostly Cloudy BKN065 53.4 26.2 35% 29.94 0.0
05 14:15 NW 13 G 26 10.00 Mostly Cloudy BKN065 54.5 27.5 35% 29.94 0.0
05 13:55 NW 15 G 22 10.00 Mostly Cloudy BKN075 53.8 27 36% 29.94 0.0
05 13:35 NW 13 G 20 10.00 Overcast BKN060 OVC075 53.4 27.5 37% 29.95 0.0
05 13:15 NW 13 G 22 10.00 Mostly Cloudy BKN060 54.7 28.2 36% 29.96 0.0
05 12:55 NW 17 G 23 10.00 Partly Cloudy SCT060 52.7 28.8 52.9 37.2 40% 29.96 0.0
05 12:35 N 14 G 20 10.00 Fair CLR 52 28.4 40% 29.96 0.0
05 12:15 N 15 10.00 Fair CLR 50.7 27.3 40% 29.96 0.0
05 11:55 NW 12 G 16 10.00 Fair CLR 50.5 27.5 41% 29.97 0.0
05 11:35 NW 9 10.00 Fair CLR 52.3 28.4 40% 29.96 0.0
05 11:15 N 10 10.00 Fair CLR 49.3 27.7 43% 45 29.96 0.0
05 10:35 N 12 10.00 Fair CLR 47.8 27.9 46% 43 29.95 0.0
05 10:15 N 12 10.00 Fair CLR 46.8 27.7 48% 42 29.95 0.0
05 09:55 N 12 10.00 Fair CLR 46.6 27.1 47% 42 29.94 0.0
05 09:35 N 10 10.00 Fair CLR 46.4 28 49% 42 29.94 0.0
05 09:15 N 8 10.00 Fair CLR 46 28.8 51% 42 29.93 0.0
05 08:55 N 8 10.00 Fair CLR 45.5 28.9 52% 42 29.93 0.0
05 08:35 N 9 10.00 Partly Cloudy SCT120 45.9 31.3 57% 42 29.92 0.0
05 08:15 N 7 10.00 Fair CLR 44.1 32.4 64% 41 29.92 0.0
05 07:55 N 5 10.00 Fair CLR 42.1 33.4 72% 40 29.91 0.0
05 07:35 N 6 10.00 Fair CLR 41.5 32.5 70% 38 29.89 0.0
05 07:15 N 5 10.00 Fair CLR 39.2 32.2 76% 36 29.89 0.0
05 06:55 Calm 10.00 Fair CLR 37.4 30.7 41.7 34.5 77% 29.88 0.0
05 06:35 Calm 10.00 Fair CLR 37.2 30 75% 29.88 0.0
05 06:15 Calm 10.00 Fair CLR 37.6 30 74% 29.87 0.0
05 05:55 Calm 10.00 Fair CLR 36.7 29.8 76% 29.87 0.0
05 05:35 Calm 10.00 Fair CLR 36.7 29.8 76% 29.86 0.0
05 05:15 Calm 10.00 Fair CLR 34.7 29.1 80% 29.86 0.0
05 04:55 Calm 10.00 Fair CLR 36.9 29.5 75% 29.85 0.0
05 04:35 Calm 10.00 Fair CLR 37 30.2 76% 29.85 0.0
05 04:15 Calm 10.00 Fair CLR 35.6 30.9 83% 29.85 0.0
05 03:55 N 6 10.00 Fair CLR 37.4 30.7 77% 33 29.84 0.0
05 03:35 Calm 10.00 Fair CLR 36.1 31.6 84% 29.84 0.0
05 03:15 NW 6 10.00 Fair CLR 37.6 31.3 78% 34 29.83 0.0
05 02:55 NW 3 10.00 Fair CLR 39.2 31.6 74% 29.83 0.0
05 02:35 Calm 10.00 Fair CLR 41.2 31.8 69% 29.83 0.0
05 02:15 Calm 10.00 Fair CLR 41 32 70% 29.83 0.0
05 01:55 Calm 10.00 Fair CLR 41 32.7 72% 29.83 0.0
05 01:35 Calm 10.00 Fair CLR 39.6 33.1 78% 29.82 0.0
05 01:15 Calm 10.00 Fair CLR 41.4 33.1 72% 29.82 0.0
05 00:55 S 3 10.00 Fair CLR 42.4 32 55.9 41.7 67% 29.82 0.0
Date Time (cdt) Wind (mph) Vis. (mi.) Weather Sky Cond. Air Dwpt Max. Min. Relative Humidity Wind Chill (°F) Heat Index (°F) altimeter (in) sea level (mb) 1 hr 3 hr 6 hr
6 hour
Temperature (ºF) Pressure Precipitation (in)